PWSweather.com
Personal Weather Stations
Station Observations
NBW76
Silver Creek, North Bend, WA 98065

Silver CreekNorth Bend, WA 98065

Lat: 47.4993612, Lon: -121.7783245

Elevation: 443

Station Type: Davisd VP2 + Solar + UV + Webcam

Latest ConditionsUpdated 6:50:01 AM PDT Sunday, Jun 25, 2017
Currently Today's Max Today's Min Today's Average
Temperature 54.7°F12.6°C 63.3°F17.4°C 53.6°F12.0°C 57.6°F14.2°C
Dew Point 53.0°F11.7°C 59.7°F15.4°C 51.9°F11.1°C 55.1°F12.8°C
Winds 1.2 mph NW1.9 kmh NW 2.3 mph N3.7 kmh N - 0.4 mph 0.6 kmh
Wind Gusts 2.3 mph3.7 kmh 3.5 mph5.6 kmh - -
Humidity 94% 95% 87% 91%
Pressure 29.90 in1012.5 mb 29.93 in1013.5 mb 29.89 in1012.2 mb -
Hour Temp Dew Point Humidity Winds Wind Gusts Pressure Precip Precip Rate Daily Precip Total
06:50 AM 54.7°F12.6°C 53.0°F11.7°C 94% 1.2 mph NW1.9 kmh NW 2.3 mph3.7 kmh 29.90 in1012.5 mb - 0.00 in0.0 mm 0.00 in0.0 mm
06:40 AM 54.6°F12.6°C 53.2°F11.8°C 95% Calm Calm -- 29.90 in1012.5 mb - 0.00 in0.0 mm 0.00 in0.0 mm
06:30 AM 54.3°F12.4°C 52.9°F11.6°C 95% Calm Calm -- 29.90 in1012.5 mb - 0.00 in0.0 mm 0.00 in0.0 mm
06:20 AM 54.0°F12.2°C 52.3°F11.3°C 94% Calm Calm -- 29.91 in1012.9 mb - 0.00 in0.0 mm 0.00 in0.0 mm
06:10 AM 53.6°F12.0°C 51.9°F11.1°C 94% Calm Calm -- 29.91 in1012.9 mb - 0.00 in0.0 mm 0.00 in0.0 mm
06:00 AM 53.7°F12.1°C 52.0°F11.1°C 94% Calm Calm -- 29.91 in1012.9 mb - 0.00 in0.0 mm 0.00 in0.0 mm
05:50 AM 53.9°F12.2°C 52.2°F11.2°C 94% Calm Calm -- 29.91 in1012.9 mb - 0.00 in0.0 mm 0.00 in0.0 mm
05:40 AM 54.1°F12.3°C 52.4°F11.3°C 94% 1.2 mph NNW1.9 kmh NNW 2.3 mph3.7 kmh 29.91 in1012.9 mb - 0.00 in0.0 mm 0.00 in0.0 mm
05:30 AM 54.0°F12.2°C 52.3°F11.3°C 94% Calm Calm -- 29.91 in1012.9 mb - 0.00 in0.0 mm 0.00 in0.0 mm
05:20 AM 54.1°F12.3°C 52.4°F11.3°C 94% 1.2 mph N1.9 kmh N 3.5 mph5.6 kmh 29.92 in1013.2 mb - 0.00 in0.0 mm 0.00 in0.0 mm
05:10 AM 54.2°F12.3°C 52.5°F11.4°C 94% 2.3 mph N3.7 kmh N 3.5 mph5.6 kmh 29.91 in1012.9 mb - 0.00 in0.0 mm 0.00 in0.0 mm
05:00 AM 54.6°F12.6°C 52.9°F11.6°C 94% Calm Calm 1.2 mph1.9 kmh 29.91 in1012.9 mb - 0.00 in0.0 mm 0.00 in0.0 mm
04:50 AM 54.8°F12.7°C 52.8°F11.6°C 93% Calm Calm -- 29.91 in1012.9 mb - 0.00 in0.0 mm 0.00 in0.0 mm
04:40 AM 55.0°F12.8°C 53.0°F11.7°C 93% 1.2 mph NNW1.9 kmh NNW 2.3 mph3.7 kmh 29.91 in1012.9 mb - 0.00 in0.0 mm 0.00 in0.0 mm
04:30 AM 55.2°F12.9°C 53.2°F11.8°C 93% Calm Calm -- 29.91 in1012.9 mb - 0.00 in0.0 mm 0.00 in0.0 mm
04:20 AM 55.5°F13.1°C 53.5°F11.9°C 93% Calm Calm -- 29.91 in1012.9 mb - 0.00 in0.0 mm 0.00 in0.0 mm
04:10 AM 55.8°F13.2°C 53.8°F12.1°C 93% Calm Calm -- 29.90 in1012.5 mb - 0.00 in0.0 mm 0.00 in0.0 mm
04:00 AM 56.0°F13.3°C 54.0°F12.2°C 93% 2.3 mph N3.7 kmh N 3.5 mph5.6 kmh 29.90 in1012.5 mb - 0.00 in0.0 mm 0.00 in0.0 mm
03:50 AM 56.2°F13.4°C 53.9°F12.2°C 92% 1.2 mph N1.9 kmh N 1.2 mph1.9 kmh 29.90 in1012.5 mb - 0.00 in0.0 mm 0.00 in0.0 mm
03:40 AM 56.5°F13.6°C 54.2°F12.3°C 92% Calm Calm -- 29.90 in1012.5 mb - 0.00 in0.0 mm 0.00 in0.0 mm
03:30 AM 56.9°F13.8°C 54.6°F12.6°C 92% Calm Calm 1.2 mph1.9 kmh 29.89 in1012.2 mb - 0.00 in0.0 mm 0.00 in0.0 mm
03:20 AM 57.2°F14.0°C 54.6°F12.6°C 91% Calm Calm 1.2 mph1.9 kmh 29.90 in1012.5 mb - 0.00 in0.0 mm 0.00 in0.0 mm
03:10 AM 57.5°F14.2°C 54.9°F12.7°C 91% Calm Calm 1.2 mph1.9 kmh 29.90 in1012.5 mb - 0.00 in0.0 mm 0.00 in0.0 mm
03:00 AM 57.9°F14.4°C 55.3°F12.9°C 91% Calm Calm 1.2 mph1.9 kmh 29.90 in1012.5 mb - 0.00 in0.0 mm 0.00 in0.0 mm
02:50 AM 58.3°F14.6°C 55.4°F13.0°C 90% Calm Calm -- 29.90 in1012.5 mb - 0.00 in0.0 mm 0.00 in0.0 mm
02:40 AM 58.8°F14.9°C 55.6°F13.1°C 89% Calm Calm -- 29.90 in1012.5 mb - 0.00 in0.0 mm 0.00 in0.0 mm
02:30 AM 59.4°F15.2°C 56.1°F13.4°C 89% Calm Calm -- 29.90 in1012.5 mb - 0.00 in0.0 mm 0.00 in0.0 mm
02:20 AM 59.8°F15.4°C 56.2°F13.4°C 88% 1.2 mph SSW1.9 kmh SSW 2.3 mph3.7 kmh 29.90 in1012.5 mb - 0.00 in0.0 mm 0.00 in0.0 mm
02:10 AM 60.2°F15.7°C 56.4°F13.6°C 87% 1.2 mph NW1.9 kmh NW 2.3 mph3.7 kmh 29.90 in1012.5 mb - 0.00 in0.0 mm 0.00 in0.0 mm
02:00 AM 60.7°F15.9°C 56.8°F13.8°C 87% Calm Calm 1.2 mph1.9 kmh 29.90 in1012.5 mb - 0.00 in0.0 mm 0.00 in0.0 mm
01:50 AM 60.7°F15.9°C 56.8°F13.8°C 87% 1.2 mph NE1.9 kmh NE 1.2 mph1.9 kmh 29.91 in1012.9 mb - 0.00 in0.0 mm 0.00 in0.0 mm
01:40 AM 60.6°F15.9°C 57.0°F13.9°C 88% 1.2 mph NNW1.9 kmh NNW 1.2 mph1.9 kmh 29.91 in1012.9 mb - 0.00 in0.0 mm 0.00 in0.0 mm
01:30 AM 60.5°F15.8°C 56.9°F13.8°C 88% Calm Calm -- 29.91 in1012.9 mb - 0.00 in0.0 mm 0.00 in0.0 mm
01:20 AM 60.8°F16.0°C 57.5°F14.2°C 89% Calm Calm -- 29.91 in1012.9 mb - 0.00 in0.0 mm 0.00 in0.0 mm
01:10 AM 61.0°F16.1°C 57.7°F14.3°C 89% Calm Calm -- 29.91 in1012.9 mb - 0.00 in0.0 mm 0.00 in0.0 mm
01:00 AM 61.2°F16.2°C 57.9°F14.4°C 89% Calm Calm -- 29.91 in1012.9 mb - 0.00 in0.0 mm 0.00 in0.0 mm
12:50 AM 61.4°F16.3°C 58.4°F14.7°C 90% Calm Calm -- 29.91 in1012.9 mb - 0.00 in0.0 mm 0.00 in0.0 mm
12:40 AM 61.7°F16.5°C 58.7°F14.8°C 90% Calm Calm -- 29.92 in1013.2 mb - 0.00 in0.0 mm 0.00 in0.0 mm
12:30 AM 62.0°F16.7°C 59.0°F15.0°C 90% Calm Calm 2.3 mph3.7 kmh 29.92 in1013.2 mb - 0.00 in0.0 mm 0.00 in0.0 mm
12:20 AM 62.4°F16.9°C 59.1°F15.1°C 89% Calm Calm -- 29.92 in1013.2 mb - 0.00 in0.0 mm 0.00 in0.0 mm
12:10 AM 62.9°F17.2°C 59.6°F15.3°C 89% Calm Calm 2.3 mph3.7 kmh 29.92 in1013.2 mb - 0.00 in0.0 mm 0.00 in0.0 mm
12:00 AM 63.3°F17.4°C 59.7°F15.4°C 88% Calm Calm 1.2 mph1.9 kmh 29.93 in1013.5 mb - 0.00 in0.0 mm 0.00 in0.0 mm